»·PEaware :: N653AW KGEG-KPSC

N653AW :: KGEG-KPSC

FLIGHT INFORMATION

Flight Status: Arrived
Operator: Privately registered:
United States
More flights under this callsign
Pilot: Sergei F. (8485)
Aircraft: AIRBUS A320
(A320)
More flights by this aircraft type
Origin: KGEG Spokane Intl
United States
Destination: KPSC Tri-Cities
United States
More flights between these airports :: More routes between these airports
Route: GEG6 GRAPH PSC
File this flight plan on PilotEdge
Remarks:
Altitude:
(Current/Filed)
24,000ft
Speed:
(Current/Filed)
400kts
Departed: 22-May-20 09:18 PM
Arrived: 22-May-20 09:45 PM
Distance/Time
Traveled:
104nm/0:27
Distance/Time
To Go:
Arrived

Flight Plot

Page will automatically refresh every two minutes.


Map Options




Map Legend


Flown Route
Filed Route
Departure Airport
Arrival Airport
Navaid (VOR, NDB)
Fix

Horizontal Profiles

Position Reports

Time Latitude Longitude Heading Altitude Ground
Speed
22-May-20 20:31 47.624606 -117.535410 278 2362ft 0kts
22-May-20 20:32 47.624606 -117.535410 278 2362ft 0kts
22-May-20 20:33 47.624606 -117.535410 278 2362ft 0kts
22-May-20 20:34 47.624606 -117.535410 278 2362ft 0kts
22-May-20 20:35 47.624606 -117.535410 278 2362ft 0kts
22-May-20 20:36 47.624606 -117.535410 278 2362ft 0kts
22-May-20 20:37 47.624606 -117.535410 278 2362ft 0kts
22-May-20 20:38 47.624606 -117.535410 278 2362ft 0kts
22-May-20 20:39 47.624606 -117.535410 278 2362ft 0kts
22-May-20 20:40 47.624606 -117.535410 278 2362ft 0kts
22-May-20 20:41 47.624606 -117.535410 278 2362ft 0kts
22-May-20 20:42 47.624606 -117.535410 278 2362ft 0kts
22-May-20 20:43 47.624606 -117.535410 278 2362ft 0kts
22-May-20 20:44 47.624606 -117.535410 278 2362ft 0kts
22-May-20 20:45 47.624606 -117.535410 278 2362ft 0kts
22-May-20 20:46 47.624606 -117.535410 278 2362ft 0kts
22-May-20 20:47 47.624606 -117.535410 278 2362ft 0kts
22-May-20 20:48 47.624606 -117.535410 278 2362ft 0kts
22-May-20 20:49 47.624606 -117.535410 278 2362ft 0kts
22-May-20 20:50 47.624606 -117.535410 278 2362ft 0kts
22-May-20 20:51 47.624606 -117.535410 278 2362ft 0kts
22-May-20 20:52 47.624606 -117.535410 278 2362ft 0kts
22-May-20 20:53 47.624606 -117.535410 278 2362ft 0kts
22-May-20 20:54 47.624606 -117.535410 278 2362ft 0kts
22-May-20 20:55 47.624606 -117.535410 278 2362ft 0kts
22-May-20 20:56 47.624606 -117.535410 278 2362ft 0kts
22-May-20 20:57 47.624606 -117.535410 278 2362ft 0kts
22-May-20 20:58 47.624606 -117.535410 278 2362ft 0kts
22-May-20 20:59 47.624606 -117.535410 278 2362ft 0kts
22-May-20 21:00 47.624606 -117.535410 278 2362ft 0kts
22-May-20 21:01 47.624606 -117.535409 278 2362ft 0kts
22-May-20 21:02 47.624606 -117.535409 278 2362ft 0kts
22-May-20 21:03 47.624587 -117.535214 277 2362ft 2kts
22-May-20 21:04 47.624231 -117.534606 353 2362ft 2kts
22-May-20 21:05 47.623861 -117.534819 46 2362ft 1kts
22-May-20 21:06 47.623856 -117.534827 45 2362ft 0kts
22-May-20 21:07 47.623856 -117.534827 45 2362ft 0kts
22-May-20 21:08 47.623856 -117.534827 45 2362ft 0kts
22-May-20 21:09 47.623856 -117.534827 45 2362ft 0kts
22-May-20 21:10 47.624078 -117.534473 48 2362ft 4kts
22-May-20 21:11 47.624360 -117.532629 45 2360ft 8kts
22-May-20 21:12 47.626481 -117.529428 45 2356ft 13kts
22-May-20 21:14 47.628576 -117.526268 44 2350ft 13kts
22-May-20 21:15 47.631314 -117.522160 44 2337ft 11kts
22-May-20 21:16 47.632060 -117.519746 131 2332ft 6kts
22-May-20 21:17 47.630922 -117.518720 219 2331ft 1kts
22-May-20 21:18 47.616594 -117.540693 227 2792ft 159kts
22-May-20 21:19 47.585647 -117.589638 228 5369ft 192kts
22-May-20 21:20 47.538114 -117.653830 221 7652ft 267kts
22-May-20 21:21 47.478194 -117.724602 222 10756ft 293kts
22-May-20 21:22 47.408850 -117.806804 223 13121ft 333kts
22-May-20 21:23 47.342357 -117.885371 223 15600ft 346kts
22-May-20 21:24 47.265822 -117.975535 224 18026ft 360kts
22-May-20 21:25 47.185671 -118.068309 225 20200ft 373kts
22-May-20 21:26 47.103137 -118.165678 224 22149ft 387kts
22-May-20 21:27 47.018085 -118.265086 225 23915ft 382kts
22-May-20 21:28 46.938833 -118.357100 225 22948ft 371kts
22-May-20 21:29 46.858965 -118.449646 224 19502ft 405kts
22-May-20 21:29 46.785716 -118.533823 223 17355ft 401kts
22-May-20 21:31 46.689057 -118.644432 223 13564ft 374kts
22-May-20 21:32 46.604980 -118.702954 196 11371ft 318kts
22-May-20 21:32 46.536876 -118.723967 196 9724ft 292kts
22-May-20 21:34 46.450837 -118.750646 196 8338ft 252kts
22-May-20 21:34 46.396079 -118.767952 198 7753ft 236kts
22-May-20 21:35 46.332806 -118.790858 198 6743ft 233kts
22-May-20 21:36 46.270302 -118.813570 198 5770ft 230kts
22-May-20 21:37 46.208753 -118.836185 198 4852ft 226kts
22-May-20 21:38 46.149847 -118.858135 199 4170ft 215kts
22-May-20 21:39 46.113543 -118.904086 297 4011ft 191kts
22-May-20 21:40 46.144184 -118.964976 320 3821ft 190kts
22-May-20 21:41 46.186468 -119.010880 324 3006ft 182kts
22-May-20 21:42 46.222417 -119.055946 315 1556ft 166kts
22-May-20 21:43 46.249706 -119.094405 315 678ft 128kts
22-May-20 21:44 46.268490 -119.120924 316 406ft 16kts
22-May-20 21:45 46.268711 -119.123460 136 403ft 9kts
22-May-20 21:46 46.266706 -119.120642 135 406ft 13kts
22-May-20 21:47 46.263647 -119.116324 136 410ft 18kts
22-May-20 21:48 46.261330 -119.113074 136 410ft 9kts
22-May-20 21:49 46.260620 -119.113330 297 410ft 2kts
22-May-20 21:50 46.260415 -119.114309 225 409ft 2kts
22-May-20 21:51 46.260340 -119.114418 224 409ft 0kts
22-May-20 21:52 46.260340 -119.114417 224 409ft 0kts
22-May-20 21:53 46.260340 -119.114417 224 409ft 0kts

Navigation Log

Ident Type
Flight plan parsing failed, navigation log unavailable